Time;durP1;ratioP1;P1;durP2;ratioP2;P2;SDS_P1;SDS_P2;PMS_P1;PMS_P2;Temp;Humidity;BMP_temperature;BMP_pressure;BME280_temperature;BME280_humidity;BME280_pressure;Samples;Min_cycle;Max_cycle;Signal;HPM_P1;HPM_P2
2022/04/03 00:01:17;;;;;;;4.00;2.45;;;;;;;;;;4994217;28;20044;-66
2022/04/03 00:03:43;;;;;;;3.75;2.63;;;;;;;;;;4993788;28;20110;-66
2022/04/03 00:06:09;;;;;;;4.93;3.00;;;;;;;;;;4993528;28;20047;-66
2022/04/03 00:08:35;;;;;;;4.88;2.38;;;;;;;;;;4993970;28;20038;-65
2022/04/03 00:11:01;;;;;;;3.60;2.40;;;;;;;;;;4993931;28;20399;-65
2022/04/03 00:13:27;;;;;;;5.57;2.53;;;;;;;;;;4993398;28;20125;-65
2022/04/03 00:15:55;;;;;;;6.80;2.85;;;;;;;;;;4992279;28;20392;-65
2022/04/03 00:18:22;;;;;;;8.18;2.90;;;;;;;;;;5008461;28;20049;-65
2022/04/03 00:20:49;;;;;;;3.13;2.33;;;;;;;;;;4993145;28;20046;-65
2022/04/03 00:23:15;;;;;;;3.90;2.47;;;;;;;;;;4992446;28;20046;-65
2022/04/03 00:25:41;;;;;;;6.13;2.38;;;;;;;;;;4988596;28;20123;-65
2022/04/03 00:28:07;;;;;;;3.70;2.60;;;;;;;;;;4973408;28;20034;-65
2022/04/03 00:30:34;;;;;;;4.00;2.60;;;;;;;;;;4973870;28;20050;-65
2022/04/03 00:33:00;;;;;;;5.05;2.88;;;;;;;;;;4973898;28;20043;-65
2022/04/03 00:35:26;;;;;;;5.18;2.80;;;;;;;;;;4973423;28;20042;-65
2022/04/03 00:37:52;;;;;;;4.22;3.33;;;;;;;;;;4973851;28;20047;-65
2022/04/03 00:40:23;;;;;;;10.35;2.67;;;;;;;;;;4974060;28;20069;-65
2022/04/03 00:42:49;;;;;;;4.93;2.83;;;;;;;;;;4971983;28;20074;-65
2022/04/03 00:45:16;;;;;;;4.32;2.97;;;;;;;;;;4973315;28;20056;-65
2022/04/03 00:47:43;;;;;;;4.65;2.70;;;;;;;;;;4973843;28;20047;-65
2022/04/03 00:50:10;;;;;;;4.53;2.13;;;;;;;;;;4973122;28;20051;-65
2022/04/03 00:52:36;;;;;;;4.55;2.40;;;;;;;;;;4973442;28;20074;-65
2022/04/03 00:55:02;;;;;;;4.93;2.65;;;;;;;;;;4973682;28;20050;-66
2022/04/03 00:57:29;;;;;;;2.95;2.65;;;;;;;;;;4972872;28;20501;-66
2022/04/03 00:59:55;;;;;;;3.85;2.88;;;;;;;;;;4973492;28;20046;-66
2022/04/03 01:02:21;;;;;;;3.00;2.30;;;;;;;;;;4972614;28;20054;-65
2022/04/03 01:04:47;;;;;;;4.97;2.22;;;;;;;;;;4972852;28;20118;-65
2022/04/03 01:07:13;;;;;;;5.53;2.47;;;;;;;;;;4973436;28;20157;-65
2022/04/03 01:09:40;;;;;;;8.75;2.83;;;;;;;;;;4973212;28;20054;-65
2022/04/03 01:12:07;;;;;;;5.68;2.92;;;;;;;;;;4972626;28;20078;-65
2022/04/03 01:14:40;;;;;;;9.75;3.20;;;;;;;;;;4973488;28;20046;-65
2022/04/03 01:17:07;;;;;;;9.02;3.38;;;;;;;;;;4971820;28;20093;-66
2022/04/03 01:19:33;;;;;;;6.03;2.75;;;;;;;;;;4972640;28;20142;-66
2022/04/03 01:21:59;;;;;;;6.55;3.03;;;;;;;;;;4973380;28;20066;-65
2022/04/03 01:24:26;;;;;;;5.53;2.78;;;;;;;;;;4973051;28;20042;-65
2022/04/03 01:26:52;;;;;;;5.22;3.20;;;;;;;;;;4986958;28;20034;-65
2022/04/03 01:29:19;;;;;;;4.57;3.08;;;;;;;;;;4992614;28;20442;-65
2022/04/03 01:31:46;;;;;;;5.85;2.85;;;;;;;;;;4992522;28;20048;-65
2022/04/03 01:34:16;;;;;;;6.22;3.28;;;;;;;;;;4990611;28;20538;-65
2022/04/03 01:36:42;;;;;;;4.78;3.28;;;;;;;;;;4992430;28;20263;-65
2022/04/03 01:39:11;;;;;;;3.47;2.65;;;;;;;;;;4992518;28;20054;-65
2022/04/03 01:41:43;;;;;;;5.78;3.20;;;;;;;;;;4991928;28;20503;-65
2022/04/03 01:44:10;;;;;;;5.15;2.88;;;;;;;;;;4992117;28;20698;-66
2022/04/03 01:46:37;;;;;;;3.97;2.80;;;;;;;;;;4992008;28;20042;-66
2022/04/03 01:49:04;;;;;;;6.93;3.22;;;;;;;;;;4991403;28;20081;-66
2022/04/03 01:51:30;;;;;;;8.57;3.33;;;;;;;;;;4992122;28;20050;-65
2022/04/03 01:53:56;;;;;;;6.40;3.30;;;;;;;;;;4992346;28;20119;-65
2022/04/03 01:56:23;;;;;;;6.35;3.20;;;;;;;;;;4991321;28;20054;-65
2022/04/03 01:58:49;;;;;;;7.40;3.30;;;;;;;;;;4992225;28;20100;-65
2022/04/03 02:01:15;;;;;;;8.38;4.07;;;;;;;;;;4992310;28;20042;-65
2022/04/03 02:03:41;;;;;;;7.00;3.92;;;;;;;;;;4990746;28;20042;-65
2022/04/03 02:06:07;;;;;;;9.45;4.30;;;;;;;;;;4992110;28;20038;-65
2022/04/03 02:08:33;;;;;;;5.13;2.92;;;;;;;;;;4991848;28;20077;-65
2022/04/03 02:11:00;;;;;;;10.77;3.30;;;;;;;;;;5006582;28;20042;-65
2022/04/03 02:13:26;;;;;;;6.65;3.88;;;;;;;;;;4992563;28;20069;-65
2022/04/03 02:15:52;;;;;;;3.65;3.15;;;;;;;;;;4995973;28;20042;-65
2022/04/03 02:18:18;;;;;;;6.05;3.35;;;;;;;;;;4995375;28;20042;-65
2022/04/03 02:20:44;;;;;;;48.08;15.13;;;;;;;;;;4995873;28;20042;-65
2022/04/03 02:23:11;;;;;;;28.45;9.93;;;;;;;;;;4995976;28;20140;-65
2022/04/03 02:25:37;;;;;;;9.30;4.47;;;;;;;;;;4989342;28;20054;-65
2022/04/03 02:28:04;;;;;;;7.25;3.50;;;;;;;;;;4976120;28;20070;-65
2022/04/03 02:30:30;;;;;;;5.65;3.55;;;;;;;;;;4976211;28;20129;-65
2022/04/03 02:32:56;;;;;;;4.72;2.85;;;;;;;;;;4975693;28;20542;-65
2022/04/03 02:35:23;;;;;;;5.25;3.30;;;;;;;;;;4976349;28;20461;-65
2022/04/03 02:37:49;;;;;;;6.43;3.50;;;;;;;;;;4976171;28;20826;-65
2022/04/03 02:40:16;;;;;;;5.53;2.88;;;;;;;;;;4975223;28;20493;-65
2022/04/03 02:42:43;;;;;;;6.05;2.92;;;;;;;;;;4976101;28;20663;-65
2022/04/03 02:45:13;;;;;;;4.63;2.90;;;;;;;;;;4975495;28;20051;-65
2022/04/03 02:47:39;;;;;;;6.07;3.08;;;;;;;;;;4975226;28;20504;-65
2022/04/03 02:50:06;;;;;;;6.22;3.10;;;;;;;;;;4975963;28;20110;-65
2022/04/03 02:52:32;;;;;;;7.47;3.33;;;;;;;;;;4974657;28;20074;-65
2022/04/03 02:54:58;;;;;;;8.77;3.38;;;;;;;;;;4975394;28;20694;-65
2022/04/03 02:57:25;;;;;;;8.10;3.22;;;;;;;;;;4975646;28;20116;-65
2022/04/03 02:59:51;;;;;;;6.38;3.33;;;;;;;;;;4975801;28;20043;-65
2022/04/03 03:02:17;;;;;;;5.97;3.00;;;;;;;;;;4975214;28;20063;-65
2022/04/03 03:04:43;;;;;;;6.53;3.30;;;;;;;;;;4975685;28;20081;-65
2022/04/03 03:07:09;;;;;;;6.85;3.60;;;;;;;;;;4975743;28;20047;-65
2022/04/03 03:09:35;;;;;;;6.30;3.38;;;;;;;;;;4975484;28;20701;-65
2022/04/03 03:12:01;;;;;;;5.03;3.60;;;;;;;;;;4974177;28;20050;-65
2022/04/03 03:14:28;;;;;;;6.72;3.17;;;;;;;;;;4975541;28;20126;-65
2022/04/03 03:16:55;;;;;;;6.45;3.40;;;;;;;;;;4975090;28;20043;-65
2022/04/03 03:19:21;;;;;;;6.22;3.15;;;;;;;;;;4974813;28;20051;-65
2022/04/03 03:21:47;;;;;;;5.88;3.20;;;;;;;;;;4975411;28;20035;-65
2022/04/03 03:24:13;;;;;;;10.18;4.10;;;;;;;;;;4975372;28;20081;-65
2022/04/03 03:26:39;;;;;;;9.02;3.60;;;;;;;;;;4986442;28;20038;-65
2022/04/03 03:29:05;;;;;;;6.18;3.42;;;;;;;;;;4994787;28;20042;-66
2022/04/03 03:31:31;;;;;;;8.85;3.53;;;;;;;;;;4994624;28;20042;-66
2022/04/03 03:33:58;;;;;;;4.18;3.47;;;;;;;;;;4993887;28;20408;-66
2022/04/03 03:36:24;;;;;;;6.53;3.53;;;;;;;;;;4994489;28;20038;-66
2022/04/03 03:38:50;;;;;;;7.47;3.40;;;;;;;;;;4994562;28;20077;-66
2022/04/03 03:41:16;;;;;;;8.50;3.67;;;;;;;;;;4994139;28;20045;-66
2022/04/03 03:43:42;;;;;;;5.93;4.00;;;;;;;;;;4994285;28;20547;-66
2022/04/03 03:46:09;;;;;;;5.55;3.47;;;;;;;;;;4994283;28;20054;-66
2022/04/03 03:48:35;;;;;;;5.88;3.60;;;;;;;;;;4993736;28;20113;-66
2022/04/03 03:51:01;;;;;;;5.53;3.58;;;;;;;;;;4994317;28;20120;-66
2022/04/03 03:53:29;;;;;;;8.73;3.67;;;;;;;;;;4994371;28;20077;-66
2022/04/03 03:55:55;;;;;;;6.30;3.25;;;;;;;;;;4993300;28;20512;-66
2022/04/03 03:58:21;;;;;;;6.20;3.53;;;;;;;;;;4993933;28;20042;-65
2022/04/03 04:00:47;;;;;;;4.85;3.25;;;;;;;;;;4994172;28;20193;-65
2022/04/03 04:03:13;;;;;;;4.80;3.30;;;;;;;;;;4993303;28;20053;-65
2022/04/03 04:05:40;;;;;;;8.05;3.20;;;;;;;;;;4994220;28;20035;-65
2022/04/03 04:08:07;;;;;;;6.72;3.47;;;;;;;;;;4992821;28;20042;-65
2022/04/03 04:10:33;;;;;;;18.67;7.50;;;;;;;;;;4993394;28;20511;-65
2022/04/03 04:12:59;;;;;;;17.20;7.70;;;;;;;;;;4994022;28;20109;-65
2022/04/03 04:15:30;;;;;;;19.58;9.00;;;;;;;;;;4993616;28;20050;-66
2022/04/03 04:17:56;;;;;;;13.05;5.53;;;;;;;;;;4993210;28;20089;-66
2022/04/03 04:20:22;;;;;;;8.07;3.78;;;;;;;;;;4992212;28;20092;-66
2022/04/03 04:22:49;;;;;;;5.90;3.50;;;;;;;;;;4993505;28;20077;-66
2022/04/03 04:25:15;;;;;;;5.78;3.22;;;;;;;;;;4991614;28;20042;-66
2022/04/03 04:27:42;;;;;;;7.20;3.80;;;;;;;;;;4974169;28;20050;-65
2022/04/03 04:30:09;;;;;;;6.45;3.20;;;;;;;;;;4972753;28;20102;-65
2022/04/03 04:32:35;;;;;;;4.68;3.35;;;;;;;;;;4973362;28;20512;-65
2022/04/03 04:35:01;;;;;;;6.35;3.90;;;;;;;;;;4973917;28;20105;-65
2022/04/03 04:37:27;;;;;;;5.05;3.33;;;;;;;;;;4973959;28;20084;-65
2022/04/03 04:39:53;;;;;;;4.97;3.30;;;;;;;;;;4973094;28;20043;-65
2022/04/03 04:42:19;;;;;;;4.90;3.38;;;;;;;;;;4973855;28;20050;-65
2022/04/03 04:44:45;;;;;;;7.03;3.80;;;;;;;;;;4973646;28;20065;-65
2022/04/03 04:47:11;;;;;;;5.15;3.55;;;;;;;;;;4971828;28;20398;-65
2022/04/03 04:49:37;;;;;;;9.00;3.63;;;;;;;;;;4973547;28;20047;-65
2022/04/03 04:52:04;;;;;;;5.30;3.38;;;;;;;;;;4973742;28;20432;-65
2022/04/03 04:54:30;;;;;;;6.30;3.67;;;;;;;;;;4972836;28;20085;-66
2022/04/03 04:56:56;;;;;;;7.05;3.53;;;;;;;;;;4973557;28;20046;-65
2022/04/03 04:59:22;;;;;;;6.20;3.08;;;;;;;;;;4973716;28;20054;-65
2022/04/03 05:01:48;;;;;;;6.35;3.65;;;;;;;;;;4972692;28;20039;-65
2022/04/03 05:04:15;;;;;;;4.72;3.20;;;;;;;;;;4973597;28;20049;-65
2022/04/03 05:06:42;;;;;;;6.43;3.80;;;;;;;;;;4973559;28;20035;-65
2022/04/03 05:09:08;;;;;;;5.30;3.70;;;;;;;;;;4971697;28;20047;-65
2022/04/03 05:11:36;;;;;;;9.32;4.35;;;;;;;;;;4973453;28;20045;-65
2022/04/03 05:14:03;;;;;;;5.10;3.72;;;;;;;;;;4973431;28;20046;-65
2022/04/03 05:16:29;;;;;;;6.63;3.60;;;;;;;;;;4972453;28;20038;-65
2022/04/03 05:18:55;;;;;;;6.82;3.60;;;;;;;;;;4973267;28;20077;-65
2022/04/03 05:21:22;;;;;;;6.75;3.72;;;;;;;;;;4973331;28;20047;-65
2022/04/03 05:23:49;;;;;;;7.57;4.35;;;;;;;;;;4972264;28;20050;-65
2022/04/03 05:26:16;;;;;;;8.25;3.60;;;;;;;;;;4982698;28;20447;-65
2022/04/03 05:28:42;;;;;;;5.50;3.83;;;;;;;;;;4992562;28;20046;-65
2022/04/03 05:31:08;;;;;;;9.32;4.43;;;;;;;;;;4991689;28;20085;-65
2022/04/03 05:33:35;;;;;;;6.50;4.10;;;;;;;;;;4992419;28;20096;-65
2022/04/03 05:36:01;;;;;;;6.53;3.95;;;;;;;;;;4990970;28;20054;-65
2022/04/03 05:38:27;;;;;;;6.70;3.97;;;;;;;;;;4991501;28;20046;-65
2022/04/03 05:40:53;;;;;;;7.10;4.45;;;;;;;;;;4992440;28;20385;-65
2022/04/03 05:43:19;;;;;;;5.60;4.00;;;;;;;;;;4992351;28;20524;-65
2022/04/03 05:45:45;;;;;;;6.70;3.83;;;;;;;;;;4991491;28;20058;-65
2022/04/03 05:48:12;;;;;;;9.25;4.30;;;;;;;;;;4991747;28;20042;-65
2022/04/03 05:50:38;;;;;;;8.07;4.00;;;;;;;;;;4992332;28;20105;-65
2022/04/03 05:53:04;;;;;;;8.20;3.78;;;;;;;;;;4991300;28;20133;-65
2022/04/03 05:55:31;;;;;;;4.72;3.50;;;;;;;;;;4992017;28;20062;-65
2022/04/03 05:57:57;;;;;;;4.47;2.78;;;;;;;;;;4992203;28;20034;-65
2022/04/03 06:00:24;;;;;;;3.40;2.67;;;;;;;;;;4991528;28;20086;-65
2022/04/03 06:02:50;;;;;;;5.97;2.53;;;;;;;;;;4992147;28;20485;-65
2022/04/03 06:05:17;;;;;;;4.60;2.95;;;;;;;;;;4992277;28;20484;-65
2022/04/03 06:07:43;;;;;;;6.45;3.97;;;;;;;;;;4991357;28;20608;-65
2022/04/03 06:10:10;;;;;;;4.68;3.20;;;;;;;;;;4992120;28;20046;-65
2022/04/03 06:12:36;;;;;;;4.53;3.17;;;;;;;;;;4992156;28;20054;-65
2022/04/03 06:15:02;;;;;;;4.38;2.72;;;;;;;;;;4991491;28;20038;-65
2022/04/03 06:17:28;;;;;;;4.78;2.70;;;;;;;;;;4991949;28;20038;-65
2022/04/03 06:19:54;;;;;;;7.22;2.58;;;;;;;;;;4992153;28;20042;-65
2022/04/03 06:22:21;;;;;;;6.05;3.05;;;;;;;;;;4991300;28;20129;-65
2022/04/03 06:24:47;;;;;;;4.75;2.70;;;;;;;;;;4991812;28;20049;-66
2022/04/03 06:27:13;;;;;;;6.72;2.88;;;;;;;;;;4974591;28;20043;-66
2022/04/03 06:29:39;;;;;;;2.72;2.13;;;;;;;;;;4971712;28;20085;-66
2022/04/03 06:32:05;;;;;;;3.33;2.55;;;;;;;;;;4972363;28;20039;-66
2022/04/03 06:34:31;;;;;;;4.53;2.53;;;;;;;;;;4972419;28;20051;-65
2022/04/03 06:36:57;;;;;;;5.45;3.10;;;;;;;;;;4971869;28;20042;-65
2022/04/03 06:39:23;;;;;;;5.30;2.70;;;;;;;;;;4972330;28;20390;-65
2022/04/03 06:41:49;;;;;;;3.80;2.58;;;;;;;;;;4972607;28;20031;-65
2022/04/03 06:44:16;;;;;;;5.22;2.55;;;;;;;;;;4971768;28;20089;-65
2022/04/03 06:46:42;;;;;;;4.22;2.40;;;;;;;;;;4972394;28;20097;-66
2022/04/03 06:49:08;;;;;;;6.40;2.42;;;;;;;;;;4972506;28;20137;-66
2022/04/03 06:51:34;;;;;;;5.13;2.60;;;;;;;;;;4971815;28;20105;-65
2022/04/03 06:54:00;;;;;;;5.93;2.45;;;;;;;;;;4970664;28;20047;-65
2022/04/03 06:56:26;;;;;;;3.90;2.38;;;;;;;;;;4972362;28;20039;-65
2022/04/03 06:58:52;;;;;;;4.35;2.58;;;;;;;;;;4972276;28;20079;-65
2022/04/03 07:01:18;;;;;;;3.50;1.85;;;;;;;;;;4973059;28;20118;-65
2022/04/03 07:03:46;;;;;;;3.65;2.03;;;;;;;;;;4975473;28;20043;-66
2022/04/03 07:06:12;;;;;;;4.93;2.50;;;;;;;;;;4975513;28;20051;-66
2022/04/03 07:08:38;;;;;;;4.03;2.30;;;;;;;;;;4974880;28;20038;-65
2022/04/03 07:11:05;;;;;;;4.20;2.05;;;;;;;;;;4975732;28;20433;-65
2022/04/03 07:13:31;;;;;;;8.20;3.00;;;;;;;;;;4975535;28;20446;-65
2022/04/03 07:15:57;;;;;;;9.60;3.45;;;;;;;;;;4973553;28;20129;-65
2022/04/03 07:18:23;;;;;;;10.98;4.40;;;;;;;;;;4975423;28;20497;-65
2022/04/03 07:20:50;;;;;;;8.85;3.53;;;;;;;;;;4975532;28;20082;-65
2022/04/03 07:23:16;;;;;;;6.32;2.40;;;;;;;;;;4974782;28;20489;-66
2022/04/03 07:25:42;;;;;;;9.25;2.00;;;;;;;;;;4980494;28;20209;-66
2022/04/03 07:28:08;;;;;;;5.40;2.13;;;;;;;;;;4994824;28;20038;-66
2022/04/03 07:30:34;;;;;;;5.47;1.95;;;;;;;;;;4993980;28;20046;-66
2022/04/03 07:33:01;;;;;;;6.05;1.90;;;;;;;;;;4994685;28;20550;-66
2022/04/03 07:35:27;;;;;;;3.72;1.80;;;;;;;;;;4994680;28;20050;-65
2022/04/03 07:37:53;;;;;;;4.68;1.90;;;;;;;;;;4993962;28;20050;-66
2022/04/03 07:40:19;;;;;;;4.63;1.90;;;;;;;;;;4994301;28;20049;-66
2022/04/03 07:42:46;;;;;;;8.18;2.03;;;;;;;;;;4994222;28;20128;-66
2022/04/03 07:45:12;;;;;;;4.15;2.10;;;;;;;;;;4993634;28;20644;-66
2022/04/03 07:47:59;;;;;;;6.22;2.10;;;;;;;;;;4994479;28;20121;-66
2022/04/03 07:50:25;;;;;;;4.03;1.42;;;;;;;;;;4994539;28;20054;-66
2022/04/03 07:52:51;;;;;;;6.90;1.58;;;;;;;;;;4992008;28;20050;-66
2022/04/03 07:55:17;;;;;;;6.60;1.30;;;;;;;;;;4994345;28;20435;-66
2022/04/03 07:57:43;;;;;;;3.28;1.35;;;;;;;;;;4994164;28;20448;-66
2022/04/03 08:00:12;;;;;;;3.30;1.42;;;;;;;;;;4993258;28;20050;-66
2022/04/03 08:02:38;;;;;;;5.18;1.10;;;;;;;;;;4994229;28;20049;-66
2022/04/03 08:05:05;;;;;;;5.50;1.45;;;;;;;;;;5009132;28;20050;-66
2022/04/03 08:07:38;;;;;;;3.03;1.00;;;;;;;;;;4993081;28;20077;-66
2022/04/03 08:10:08;;;;;;;2.75;1.08;;;;;;;;;;4994073;28;20038;-66
2022/04/03 08:12:34;;;;;;;1.98;0.98;;;;;;;;;;4993606;28;20038;-66
2022/04/03 08:15:00;;;;;;;2.08;1.10;;;;;;;;;;4993421;28;20038;-66
2022/04/03 08:17:26;;;;;;;2.47;1.33;;;;;;;;;;4993596;28;20042;-66
2022/04/03 08:19:52;;;;;;;4.15;1.10;;;;;;;;;;4993824;28;20093;-66
2022/04/03 08:22:18;;;;;;;5.00;1.33;;;;;;;;;;4993271;28;20039;-66
2022/04/03 08:24:44;;;;;;;1.88;0.90;;;;;;;;;;5008751;28;20480;-66
2022/04/03 08:27:12;;;;;;;5.15;1.27;;;;;;;;;;4976680;28;20053;-66
2022/04/03 08:29:38;;;;;;;2.85;0.98;;;;;;;;;;4973626;28;20435;-66
2022/04/03 08:32:04;;;;;;;2.97;1.10;;;;;;;;;;4974085;28;20039;-66
2022/04/03 08:34:30;;;;;;;3.72;1.20;;;;;;;;;;4972878;28;20113;-66
2022/04/03 08:36:57;;;;;;;4.47;1.13;;;;;;;;;;4973355;28;20081;-66
2022/04/03 08:39:23;;;;;;;5.43;1.10;;;;;;;;;;4973808;28;20092;-66
2022/04/03 08:41:50;;;;;;;3.17;1.15;;;;;;;;;;4973815;28;20512;-66
2022/04/03 08:44:16;;;;;;;4.95;2.05;;;;;;;;;;4973211;28;20090;-66
2022/04/03 08:46:45;;;;;;;8.68;1.58;;;;;;;;;;4973845;28;20097;-66
2022/04/03 08:49:12;;;;;;;8.32;1.40;;;;;;;;;;4973721;28;20101;-66
2022/04/03 08:51:40;;;;;;;4.05;1.08;;;;;;;;;;4971711;28;20054;-66
2022/04/03 08:54:07;;;;;;;6.35;1.30;;;;;;;;;;4973786;28;20042;-66
2022/04/03 08:56:33;;;;;;;2.55;0.80;;;;;;;;;;4973634;28;20046;-66
2022/04/03 08:58:59;;;;;;;4.22;1.30;;;;;;;;;;4972851;28;20039;-66
2022/04/03 09:01:25;;;;;;;2.65;0.98;;;;;;;;;;4973402;28;20069;-66
2022/04/03 09:03:51;;;;;;;3.55;0.85;;;;;;;;;;4973744;28;20049;-66
2022/04/03 09:06:21;;;;;;;6.65;1.30;;;;;;;;;;4972812;28;20121;-66
2022/04/03 09:08:48;;;;;;;1.58;0.95;;;;;;;;;;4973627;28;20043;-66
2022/04/03 09:11:15;;;;;;;4.07;1.00;;;;;;;;;;4973493;28;20046;-66
2022/04/03 09:13:41;;;;;;;4.45;1.13;;;;;;;;;;4972663;28;20054;-66
2022/04/03 09:16:08;;;;;;;2.70;1.10;;;;;;;;;;4973626;28;20047;-66
2022/04/03 09:18:47;;;;;;;4.10;0.90;;;;;;;;;;4973295;28;20070;-67
2022/04/03 09:21:16;;;;;;;2.58;0.98;;;;;;;;;;4972373;28;20504;-66
2022/04/03 09:24:01;;;;;;;1.98;0.73;;;;;;;;;;4972748;28;20038;-66
2022/04/03 09:26:28;;;;;;;3.40;1.00;;;;;;;;;;4983987;28;20046;-66
2022/04/03 09:29:14;;;;;;;2.67;0.98;;;;;;;;;;4991992;28;20101;-66
2022/04/03 09:31:41;;;;;;;2.50;0.77;;;;;;;;;;4992272;28;20065;-66
2022/04/03 09:34:08;;;;;;;5.63;1.00;;;;;;;;;;4992580;28;20038;-66
2022/04/03 09:36:35;;;;;;;3.17;0.95;;;;;;;;;;4991833;28;20384;-66
2022/04/03 09:39:08;;;;;;;3.40;0.75;;;;;;;;;;4992508;28;20045;-66
2022/04/03 09:41:35;;;;;;;1.73;0.73;;;;;;;;;;4992591;28;20042;-66
2022/04/03 09:44:15;;;;;;;3.47;0.70;;;;;;;;;;4991523;28;20405;-66
2022/04/03 09:46:41;;;;;;;4.07;0.75;;;;;;;;;;4992410;28;20057;-66
2022/04/03 09:49:22;;;;;;;5.15;0.70;;;;;;;;;;4992026;28;20072;-66
2022/04/03 09:51:49;;;;;;;2.75;0.85;;;;;;;;;;4992328;28;20046;-66
2022/04/03 09:54:19;;;;;;;2.03;1.00;;;;;;;;;;4992379;28;20038;-66
2022/04/03 09:56:45;;;;;;;2.38;0.80;;;;;;;;;;4991616;28;20092;-66
2022/04/03 09:59:11;;;;;;;3.22;1.08;;;;;;;;;;4992246;28;20039;-66
2022/04/03 10:01:39;;;;;;;3.00;1.02;;;;;;;;;;4990794;28;20046;-66
2022/04/03 10:04:09;;;;;;;4.03;1.30;;;;;;;;;;4991646;28;20049;-66
2022/04/03 10:06:36;;;;;;;2.65;0.90;;;;;;;;;;4990544;28;20384;-66
2022/04/03 10:09:03;;;;;;;2.20;1.05;;;;;;;;;;4992216;28;20042;-66
2022/04/03 10:11:29;;;;;;;3.60;1.00;;;;;;;;;;4990291;28;20056;-66
2022/04/03 10:13:56;;;;;;;3.10;0.88;;;;;;;;;;4992147;28;20037;-66
2022/04/03 10:16:22;;;;;;;1.88;1.00;;;;;;;;;;4992058;28;20089;-66
2022/04/03 10:18:49;;;;;;;4.03;0.80;;;;;;;;;;4991908;28;20034;-66
2022/04/03 10:21:30;;;;;;;2.78;0.93;;;;;;;;;;4991837;28;20465;-66
2022/04/03 10:23:59;;;;;;;6.25;0.90;;;;;;;;;;4992150;28;20097;-66
2022/04/03 10:26:25;;;;;;;1.70;0.85;;;;;;;;;;4980573;28;20071;-66
2022/04/03 10:28:54;;;;;;;2.00;0.90;;;;;;;;;;4972633;28;20503;-66
2022/04/03 10:31:21;;;;;;;1.30;0.90;;;;;;;;;;4972702;28;20113;-66
2022/04/03 10:33:50;;;;;;;2.22;1.00;;;;;;;;;;4972099;28;20078;-66
2022/04/03 10:36:24;;;;;;;4.03;1.00;;;;;;;;;;4975748;28;20078;-66
2022/04/03 10:39:00;;;;;;;4.28;1.20;;;;;;;;;;4976324;28;20046;-66
2022/04/03 10:41:28;;;;;;;4.30;1.23;;;;;;;;;;4975452;28;20050;-66
2022/04/03 10:44:29;;;;;;;2.83;1.17;;;;;;;;;;4974428;28;20053;-66
2022/04/03 10:47:04;;;;;;;2.38;1.27;;;;;;;;;;4915684;29;20052;-66
2022/04/03 10:49:41;;;;;;;3.42;1.30;;;;;;;;;;4966805;28;20797;-66
2022/04/03 10:52:08;;;;;;;2.40;1.08;;;;;;;;;;4974353;28;20051;-66
2022/04/03 10:54:41;;;;;;;3.00;1.00;;;;;;;;;;4975960;28;20053;-66
2022/04/03 10:57:26;;;;;;;1.52;0.80;;;;;;;;;;4957955;28;20078;-66
2022/04/03 11:00:12;;;;;;;2.85;0.70;;;;;;;;;;4975788;28;20047;-66
2022/04/03 11:02:42;;;;;;;2.53;0.80;;;;;;;;;;4961371;28;20078;-66
2022/04/03 11:05:20;;;;;;;1.35;0.70;;;;;;;;;;4975220;28;20050;-66
2022/04/03 11:07:46;;;;;;;2.42;1.00;;;;;;;;;;4975748;28;20041;-66
2022/04/03 11:10:12;;;;;;;1.83;0.70;;;;;;;;;;4975689;28;20061;-66
2022/04/03 11:12:56;;;;;;;2.13;0.68;;;;;;;;;;4975045;28;20363;-66
2022/04/03 11:15:24;;;;;;;1.73;0.80;;;;;;;;;;4974386;28;20046;-66
2022/04/03 11:17:52;;;;;;;1.70;0.52;;;;;;;;;;4975244;28;20046;-66
2022/04/03 11:20:36;;;;;;;2.72;0.60;;;;;;;;;;4974783;28;20047;-66
2022/04/03 11:23:03;;;;;;;2.53;0.50;;;;;;;;;;4974349;28;20075;-66
2022/04/03 11:25:29;;;;;;;1.23;0.50;;;;;;;;;;4978273;28;20050;-66
2022/04/03 11:27:55;;;;;;;2.58;0.80;;;;;;;;;;4994873;28;20042;-66
2022/04/03 11:30:22;;;;;;;4.32;0.68;;;;;;;;;;4993308;28;20334;-66
2022/04/03 11:32:48;;;;;;;2.42;0.80;;;;;;;;;;4994247;28;20039;-66
2022/04/03 11:35:14;;;;;;;0.93;0.68;;;;;;;;;;4994068;28;20042;-66
2022/04/03 11:37:44;;;;;;;6.05;0.80;;;;;;;;;;4994638;28;20477;-66
2022/04/03 11:40:11;;;;;;;2.50;0.63;;;;;;;;;;4994691;28;20045;-66
2022/04/03 11:42:38;;;;;;;1.60;0.65;;;;;;;;;;4993953;28;20117;-66
2022/04/03 11:45:07;;;;;;;2.08;0.95;;;;;;;;;;4994164;28;20436;-66
2022/04/03 11:47:33;;;;;;;9.02;1.30;;;;;;;;;;4993627;28;20477;-66
2022/04/03 11:50:07;;;;;;;1.80;0.77;;;;;;;;;;4993989;28;20503;-66
2022/04/03 11:52:35;;;;;;;1.35;0.80;;;;;;;;;;4994403;28;20094;-66
2022/04/03 11:55:02;;;;;;;1.15;0.70;;;;;;;;;;4994130;28;20173;-66
2022/04/03 11:57:28;;;;;;;1.25;0.70;;;;;;;;;;4992851;28;20054;-66
2022/04/03 11:59:55;;;;;;;5.88;1.30;;;;;;;;;;4994236;28;20072;-66
2022/04/03 12:02:21;;;;;;;3.10;1.25;;;;;;;;;;4992954;28;20193;-66
2022/04/03 12:04:47;;;;;;;2.53;0.82;;;;;;;;;;4993589;28;20042;-66
2022/04/03 12:07:16;;;;;;;2.53;1.25;;;;;;;;;;4994151;28;20459;-66
2022/04/03 12:09:43;;;;;;;3.67;1.05;;;;;;;;;;4994183;28;20058;-66
2022/04/03 12:12:10;;;;;;;1.92;1.00;;;;;;;;;;4993329;28;20096;-66
2022/04/03 12:14:38;;;;;;;2.08;1.00;;;;;;;;;;4994065;28;20035;-66
2022/04/03 12:17:15;;;;;;;4.60;1.40;;;;;;;;;;5008561;28;20488;-66
2022/04/03 12:19:44;;;;;;;2.53;0.98;;;;;;;;;;4993734;28;20053;-66
2022/04/03 12:22:12;;;;;;;1.90;0.93;;;;;;;;;;5008487;28;20034;-66
2022/04/03 12:24:39;;;;;;;2.92;0.90;;;;;;;;;;4993343;28;20047;-66
2022/04/03 12:27:12;;;;;;;3.65;0.82;;;;;;;;;;4977008;28;20043;-66
2022/04/03 12:29:39;;;;;;;2.60;0.90;;;;;;;;;;4974388;28;20513;-66
2022/04/03 12:32:06;;;;;;;2.53;0.90;;;;;;;;;;4973607;28;20043;-66
2022/04/03 12:34:33;;;;;;;2.42;0.70;;;;;;;;;;4972662;28;20074;-66
2022/04/03 12:37:00;;;;;;;3.13;0.80;;;;;;;;;;4973841;28;20046;-66
2022/04/03 12:39:29;;;;;;;2.42;1.00;;;;;;;;;;4973402;28;20046;-66
2022/04/03 12:41:56;;;;;;;3.22;0.90;;;;;;;;;;4973935;28;20121;-66
2022/04/03 12:44:22;;;;;;;2.67;0.90;;;;;;;;;;4973722;28;20481;-66
2022/04/03 12:46:48;;;;;;;6.28;0.85;;;;;;;;;;4973330;28;20129;-66
2022/04/03 12:49:17;;;;;;;4.50;0.50;;;;;;;;;;4973287;28;20470;-66
2022/04/03 12:51:44;;;;;;;1.13;0.65;;;;;;;;;;4974000;28;20050;-66
2022/04/03 12:54:10;;;;;;;3.30;0.50;;;;;;;;;;4973661;28;20094;-66
2022/04/03 12:59:21;;;;;;;2.63;0.40;;;;;;;;;;4972650;28;20058;-66
2022/04/03 13:01:52;;;;;;;2.30;0.65;;;;;;;;;;4972934;28;20046;-66
2022/04/03 13:04:31;;;;;;;0.85;0.55;;;;;;;;;;4973742;28;20043;-66
2022/04/03 13:06:58;;;;;;;2.05;0.70;;;;;;;;;;4973514;28;20652;-66
2022/04/03 13:09:24;;;;;;;1.95;0.65;;;;;;;;;;4972933;28;20050;-66
2022/04/03 13:11:51;;;;;;;2.70;0.70;;;;;;;;;;4973461;28;20826;-66
2022/04/03 13:14:17;;;;;;;0.77;0.50;;;;;;;;;;4973302;28;20078;-68
2022/04/03 13:16:44;;;;;;;1.55;0.70;;;;;;;;;;4972638;28;20047;-67
2022/04/03 13:19:10;;;;;;;2.13;0.80;;;;;;;;;;4973277;28;20146;-67
2022/04/03 13:21:37;;;;;;;2.28;0.80;;;;;;;;;;4973363;28;20111;-67
2022/04/03 13:24:04;;;;;;;4.43;0.70;;;;;;;;;;4972616;28;20501;-67
2022/04/03 13:26:30;;;;;;;2.22;1.00;;;;;;;;;;4984490;28;20118;-67
2022/04/03 13:28:56;;;;;;;1.08;0.60;;;;;;;;;;4992558;28;20045;-67
2022/04/03 13:31:23;;;;;;;2.20;0.60;;;;;;;;;;4990433;28;20404;-67
2022/04/03 13:33:49;;;;;;;0.88;0.50;;;;;;;;;;4992519;28;20120;-67
2022/04/03 13:36:15;;;;;;;2.47;0.60;;;;;;;;;;4992549;28;20038;-67
2022/04/03 13:38:41;;;;;;;0.93;0.57;;;;;;;;;;4992021;28;20042;-67
2022/04/03 13:41:08;;;;;;;1.63;0.50;;;;;;;;;;4992534;28;20052;-67
2022/04/03 13:43:34;;;;;;;2.25;0.90;;;;;;;;;;4992209;28;20047;-67
2022/04/03 13:46:02;;;;;;;2.72;0.60;;;;;;;;;;4992078;28;20412;-67
2022/04/03 13:48:35;;;;;;;1.10;0.60;;;;;;;;;;4991897;28;20412;-67
2022/04/03 13:51:02;;;;;;;1.75;0.50;;;;;;;;;;4992489;28;20069;-67
2022/04/03 13:53:29;;;;;;;0.85;0.60;;;;;;;;;;4991548;28;20046;-67
2022/04/03 13:55:55;;;;;;;1.95;0.70;;;;;;;;;;4992333;28;20045;-67
2022/04/03 13:58:22;;;;;;;1.67;0.65;;;;;;;;;;4992247;28;20038;-67
2022/04/03 14:00:48;;;;;;;2.55;0.80;;;;;;;;;;4992038;28;20464;-67
2022/04/03 14:03:14;;;;;;;2.63;0.80;;;;;;;;;;4990432;28;20042;-67
2022/04/03 14:05:40;;;;;;;1.77;0.70;;;;;;;;;;4992340;28;20042;-67
2022/04/03 14:08:09;;;;;;;2.35;0.63;;;;;;;;;;4991005;28;20065;-67
2022/04/03 14:10:35;;;;;;;1.92;0.70;;;;;;;;;;4993837;28;20052;-67
2022/04/03 14:13:01;;;;;;;2.70;0.47;;;;;;;;;;4996348;28;20052;-67
2022/04/03 14:15:28;;;;;;;2.20;0.70;;;;;;;;;;4996208;28;20401;-67
2022/04/03 14:17:54;;;;;;;4.45;1.02;;;;;;;;;;4995401;28;20129;-67
2022/04/03 14:20:20;;;;;;;1.13;0.60;;;;;;;;;;4995652;28;20076;-67
2022/04/03 14:22:46;;;;;;;1.65;0.75;;;;;;;;;;4996115;28;20531;-67
2022/04/03 14:25:13;;;;;;;2.08;0.50;;;;;;;;;;4994346;28;20078;-67
2022/04/03 14:27:39;;;;;;;2.40;0.50;;;;;;;;;;4975942;28;20042;-67
2022/04/03 14:30:07;;;;;;;2.33;0.70;;;;;;;;;;4976541;28;20477;-67
2022/04/03 14:32:34;;;;;;;1.58;0.50;;;;;;;;;;4975711;28;20559;-67
2022/04/03 14:35:00;;;;;;;3.08;0.90;;;;;;;;;;4976456;28;20043;-67
2022/04/03 14:37:29;;;;;;;1.63;0.65;;;;;;;;;;4976331;28;20042;-67
2022/04/03 14:39:56;;;;;;;2.72;0.70;;;;;;;;;;4974300;28;20043;-67
2022/04/03 14:42:22;;;;;;;0.60;0.30;;;;;;;;;;4976193;28;20031;-67
2022/04/03 14:44:48;;;;;;;1.13;0.60;;;;;;;;;;4975690;28;20051;-67
2022/04/03 14:47:14;;;;;;;1.52;0.35;;;;;;;;;;4973936;28;20492;-67